Happy Valentine's Day! 

Flight Track Log - Related Links

Times and Time Zones

All times are in EST time to prevent confusion due to time zone crossing. See the EJA142 flight status page for this flight to view local times or setup timezone preferences in your user account.


Time Position Orientation Groundspeed Altitude Reporting Facility
EST Latitude Longitude Course Direction KTS MPH feet Rate Location/Type
Fri 10:03:06 AM 26.7678 -79.9792 339° North 298 343 6,300  Level Miami Center
Fri 10:04:06 AM 26.8425 -79.9928 351° North 279 321 9,500 1,850 Climbing Miami Center
Fri 10:05:06 AM 26.8594 -80.0794 282° West 220 253 10,000 750 Climbing Miami Center
Fri 10:06:06 AM 26.8614 -80.1819 271° West 300 345 11,000 1,000 Climbing Miami Center
Fri 10:07:00 AM 27.1015 -80.4459 339° North  Level FlightAware Approximate
Fri 10:07:06 AM 26.8631 -80.2889 271° West 325 374 12,000  Level Miami Center
Fri 10:08:06 AM 26.9239 -80.3583 315° West 316 364 13,400 1,850 Climbing Miami Center
Fri 10:09:06 AM 27.0314 -80.4106 337° Northwest 369 425 15,700 2,100 Climbing Miami Center
Fri 10:10:06 AM 27.1283 -80.4578 337° Northwest 377 434 17,600 1,750 Climbing Miami Center
Fri 10:11:06 AM 27.2186 -80.5236 327° Northwest 377 434 19,200 1,800 Climbing Miami Center
Fri 10:12:06 AM 27.3106 -80.5944 326° Northwest 387 445 21,200 2,050 Climbing Miami Center
Fri 10:13:06 AM 27.4156 -80.6586 332° Northwest 405 466 23,300 2,050 Climbing Miami Center
Fri 10:14:06 AM 27.5181 -80.7206 332° Northwest 417 480 25,300 2,000 Climbing Miami Center
Fri 10:15:06 AM 27.6231 -80.7803 333° Northwest 417 480 27,300 1,900 Climbing Miami Center
Fri 10:16:06 AM 27.7217 -80.8353 334° Northwest 423 487 29,100 1,900 Climbing Miami Center
Fri 10:17:06 AM 27.8325 -80.9025 332° Northwest 430 495 31,100 1,950 Climbing Miami Center
Fri 10:18:06 AM 27.9414 -80.9675 332° Northwest 435 501 33,000 2,150 Climbing Miami Center
Fri 10:19:06 AM 28.0711 -81.0286 337° Northwest 451 519 35,400 2,200 Climbing Miami Center
Fri 10:20:06 AM 28.1847 -81.0706 342° North 445 512 37,400 1,850 Climbing Miami Center
Fri 10:21:06 AM 28.2917 -81.1194 338° Northwest 429 494 39,100 1,350 Climbing Miami Center
Fri 10:22:06 AM 28.4011 -81.1589 342° North 413 475 40,100 1,000 Climbing Miami Center
Fri 10:23:18 AM 28.5292 -81.2150 339° North 412 474 41,300 955 Climbing Jacksonville Center
Fri 10:24:18 AM 28.6300 -81.2533 342° North 398 458 42,200 800 Climbing Jacksonville Center
Fri 10:25:18 AM 28.7328 -81.2944 341° North 393 452 42,900 700 Climbing Jacksonville Center
Fri 10:26:18 AM 28.8397 -81.3353 342° North 393 452 43,600 650 Climbing Jacksonville Center
Fri 10:27:18 AM 28.9508 -81.3811 340° North 404 465 44,200 600 Climbing Jacksonville Center
Fri 10:28:18 AM 29.0597 -81.4269 340° North 410 472 44,800 400 Climbing Jacksonville Center
Fri 10:29:18 AM 29.1731 -81.4703 342° North 415 478 45,000 100 Climbing Jacksonville Center
Fri 10:30:18 AM 29.2864 -81.5164 340° North 420 483 45,000  Level Jacksonville Center
Fri 10:31:18 AM 29.4058 -81.5672 340° North 434 499 45,000  Level Jacksonville Center
Fri 10:32:18 AM 29.5253 -81.6133 341° North 444 511 45,000  Level Jacksonville Center
Fri 10:33:18 AM 29.6425 -81.6619 340° North 450 518 45,000  Level Jacksonville Center
Fri 10:34:18 AM 29.7600 -81.7083 341° North 450 518 45,000  Level Jacksonville Center
Fri 10:35:18 AM 29.8794 -81.7572 340° North 450 518 45,000  Level Jacksonville Center
Fri 10:36:18 AM 29.9906 -81.8014 341° North 445 512 45,000 -50 Level Jacksonville Center
Fri 10:37:18 AM 30.1056 -81.8433 342° North 440 506 44,900  Descending Jacksonville Center
Fri 10:38:18 AM 30.2250 -81.8806 345° North 440 506 45,000  Climbing Jacksonville Center
Fri 10:39:18 AM 30.3522 -81.8672 North 445 512 44,900 -50 Descending Jacksonville Center
Fri 10:40:18 AM 30.4836 -81.8489 North 452 520 44,900  Level Jacksonville Center
Fri 10:41:18 AM 30.6150 -81.8353 North 474 545 44,900 50 Level Jacksonville Center
Fri 10:42:18 AM 30.7400 -81.8194 North 468 539 45,000 50 Climbing Jacksonville Center
Fri 10:43:18 AM 30.8694 -81.8011 North 462 532 45,000  Level Jacksonville Center
Fri 10:44:18 AM 30.9986 -81.7825 North 462 532 45,000  Level Jacksonville Center
Fri 10:45:18 AM 31.1217 -81.7667 North 454 522 45,000  Level Jacksonville Center
Fri 10:46:18 AM 31.2511 -81.7625 North 454 522 45,000  Level Jacksonville Center
Fri 10:47:18 AM 31.3664 -81.7953 346° North 429 494 45,000  Level Jacksonville Center
Fri 10:49:27 AM 31.6211 -81.8658 347° North 449 517 45,000  Level Atlanta Center
Fri 10:50:27 AM 31.7383 -81.8997 346° North 449 517 45,000  Level Atlanta Center
Fri 10:51:27 AM 31.8558 -81.9311 347° North 437 503 45,000  Level Atlanta Center
Fri 10:52:27 AM 31.9756 -81.9650 346° North 432 497 45,000  Level Atlanta Center
Fri 10:53:27 AM 32.1008 -81.9794 354° North 440 506 45,000  Level Atlanta Center
Fri 10:54:27 AM 32.2222 -81.9936 354° North 440 506 45,000  Level Atlanta Center
Fri 10:55:27 AM 32.3331 -82.0058 355° North 440 506 45,000  Level Atlanta Center
Fri 10:56:27 AM 32.4586 -82.0203 354° North 446 513 45,000  Level Atlanta Center
Fri 10:57:27 AM 32.5861 -82.0322 355° North 446 513 45,000  Level Atlanta Center
Fri 10:58:27 AM 32.7136 -82.0489 354° North 452 520 45,000  Level Atlanta Center
Fri 10:59:27 AM 32.8453 -82.0633 355° North 462 532 45,000  Level Atlanta Center
Fri 11:00:27 AM 32.9897 -82.0797 355° North 472 543 45,000  Level Atlanta Center
Fri 11:01:27 AM 33.1192 -82.0942 355° North 472 543 45,000  Level Atlanta Center
Fri 11:02:27 AM 33.2531 -82.1111 354° North 472 543 45,000  Level Atlanta Center
Fri 11:03:27 AM 33.3847 -82.1231 356° North 472 543 45,000  Level Atlanta Center
Fri 11:04:27 AM 33.5186 -82.1400 354° North 477 549 45,000  Level Atlanta Center
Fri 11:05:27 AM 33.6544 -82.1522 356° North 483 556 45,000  Level Atlanta Center
Fri 11:06:27 AM 33.7964 -82.1464 North 488 562 45,000  Level Atlanta Center
Fri 11:07:27 AM 33.9317 -82.1208 North 507 583 45,000  Level Atlanta Center
Fri 11:08:27 AM 34.0731 -82.0978 North 515 593 45,000  Level Atlanta Center
Fri 11:09:27 AM 34.2147 -82.0744 North 520 598 45,000  Level Atlanta Center
Fri 11:10:27 AM 34.3525 -82.0761 359° North 513 590 45,000  Level Atlanta Center
Fri 11:11:27 AM 34.4944 -82.0781 359° North 507 583 45,000  Level Atlanta Center
Fri 11:12:27 AM 34.6342 -82.0797 359° North 502 578 45,000  Level Atlanta Center
Fri 11:13:27 AM 34.7761 -82.0814 359° North 497 572 45,000  Level Atlanta Center
Fri 11:14:27 AM 34.9161 -82.0833 359° North 497 572 45,000  Level Atlanta Center
Fri 11:15:27 AM 35.0581 -82.0900 358° North 502 578 45,000  Level Atlanta Center
Fri 11:16:27 AM 35.2019 -82.0892 360° North 502 578 45,000  Level Atlanta Center
Fri 11:17:27 AM 35.3419 -82.0911 359° North 502 578 45,000  Level Atlanta Center
Fri 11:18:27 AM 35.4858 -82.0953 359° North 502 578 45,000  Level Atlanta Center
Fri 11:19:27 AM 35.6278 -82.0944 360° North 508 585 45,000  Level Atlanta Center
Fri 11:20:27 AM 35.7717 -82.0961 359° North 508 585 45,000  Level Atlanta Center
Fri 11:21:27 AM 35.9136 -82.0978 359° North 513 590 45,000  Level Atlanta Center
Fri 11:22:27 AM 36.0575 -82.0969 360° North 513 590 45,000  Level Atlanta Center
Fri 11:23:27 AM 36.1972 -82.0989 359° North 513 590 45,000  Level Atlanta Center
Fri 11:24:27 AM 36.3369 -82.0981 360° North 505 581 45,000  Level Atlanta Center
Fri 11:25:27 AM 36.4789 -82.0997 359° North 505 581 45,000  Level Atlanta Center
Fri 11:26:27 AM 36.6228 -82.1014 359° North 510 587 45,000  Level Atlanta Center
Fri 11:28:12 AM 36.8797 -82.1036 360° North 512 589 45,000  Level Indianapolis Center
Fri 11:29:14 AM 37.0225 -82.1064 359° North 512 589 45,000  Level Indianapolis Center
Fri 11:30:15 AM 37.1669 -82.1083 359° North 514 592 45,000  Level Indianapolis Center
Fri 11:31:17 AM 37.3342 -82.1108 359° North 515 593 45,000  Level Indianapolis Center
Fri 11:32:18 AM 37.4794 -82.1125 359° North 516 594 45,000  Level Indianapolis Center
Fri 11:33:20 AM 37.6244 -82.1153 359° North 519 597 45,000  Level Indianapolis Center
Fri 11:34:22 AM 37.7708 -82.1169 359° North 520 598 45,000  Level Indianapolis Center
Fri 11:35:23 AM 37.9181 -82.1181 360° North 521 600 45,000  Level Indianapolis Center
Fri 11:36:25 AM 38.0631 -82.1192 360° North 521 600 45,000  Level Indianapolis Center
Fri 11:37:26 AM 38.2036 -82.1222 359° North 507 583 45,000  Level Indianapolis Center
Fri 11:38:28 AM 38.3472 -82.1239 359° North 507 583 45,000  Level Indianapolis Center
Fri 11:39:29 AM 38.5128 -82.1256 360° North 515 593 45,000  Level Indianapolis Center
Fri 11:40:31 AM 38.6406 -82.1267 360° North 519 597 45,000  Level Indianapolis Center
Fri 11:41:32 AM 38.7858 -82.1297 359° North 518 596 45,000 -49 Level Indianapolis Center
Fri 11:42:34 AM 38.9294 -82.1297 360° North 516 594 44,900 -585 Descending Indianapolis Center
Fri 11:43:35 AM 39.0689 -82.1308 360° North 504 580 43,800 -1,659 Descending Indianapolis Center
Fri 11:44:37 AM 39.2333 -82.1339 359° North 495 570 41,500 -2,098 Descending Indianapolis Center
Fri 11:45:38 AM 39.3761 -82.1361 359° North 499 574 39,500 -2,049 Descending Indianapolis Center
Fri 11:46:40 AM 39.5286 -82.1383 359° North 531 611 37,300 -2,098 Descending Indianapolis Center
Fri 11:47:41 AM 39.6797 -82.1389 360° North 540 621 35,200 -1,122 Descending Indianapolis Center
Fri 11:48:43 AM 39.8317 -82.1411 359° North 542 624 35,000 -634 Descending Indianapolis Center
Fri 11:49:44 AM 39.9878 -82.1433 359° North 554 638 33,900 -1,500 Descending Indianapolis Center
Fri 11:51:23 AM 40.2381 -82.1464 359° North 566 651 31,000 -1,313 Descending Cleveland Center
Fri 11:52:24 AM 40.4019 -82.1492 359° North 553 636 30,400 -984 Descending Cleveland Center
Fri 11:53:25 AM 40.5483 -82.1508 360° North 526 605 29,000 -984 Descending Cleveland Center
Fri 11:54:26 AM 40.6917 -82.1583 358° North 515 593 28,400 -1,024 Descending Cleveland Center
Fri 11:55:28 AM 40.8183 -82.2103 343° North 474 545 26,900 -1,659 Descending Cleveland Center
Fri 11:56:29 AM 40.9381 -82.2581 343° North 449 517 25,000 -1,869 Descending Cleveland Center
Fri 11:57:30 AM 41.0533 -82.3039 343° North 431 496 23,100 -1,854 Descending Cleveland Center
Fri 11:58:32 AM 41.1703 -82.3508 343° North 430 495 21,200 -1,756 Descending Cleveland Center
Fri 11:59:33 AM 41.2814 -82.3961 343° North 416 479 19,500 -1,820 Descending Cleveland Center
Fri 12:00:34 PM 41.4075 -82.4461 343° North 403 464 17,500 -1,756 Descending Cleveland Center
Fri 12:01:36 PM 41.5106 -82.4883 343° North 387 445 15,900 -1,561 Descending Cleveland Center
Fri 12:02:37 PM 41.6100 -82.5281 343° North 371 427 14,300 -1,792 Descending Cleveland Center
Fri 12:02:53 PM 41.6353 -82.5389 342° North 363 418 13,600 -1,574 Descending Cleveland Center
Fri 12:03:38 PM 41.6942 -82.5625 343° North 368 423 12,700 -1,726 Descending Cleveland Center
Fri 12:04:06 PM 41.7553 -82.5878 343° North 362 417 11,500 -1,672 Descending Cleveland Center
Fri 12:04:39 PM 41.7889 -82.6003 345° North 359 413 11,000 -1,343 Descending Cleveland Center
Fri 12:05:13 PM 41.8550 -82.6286 342° North 335 386 10,000 -968 Descending Cleveland Center
Fri 12:05:41 PM 41.8950 -82.6444 344° North 339 390 10,000  Level Cleveland Center
Fri 12:06:02 PM 41.9233 -82.6683 328° Northwest 323 372 10,000 -98 Level Cleveland Center
Fri 12:06:42 PM 41.9731 -82.6992 335° Northwest 321 369 9,900 -583 Descending Cleveland Center
Fri 12:07:14 PM 42.0114 -82.7272 331° Northwest 274 315 9,300 -885 Descending Cleveland Center
Fri 12:07:43 PM 42.0419 -82.7453 336° Northwest 289 333 9,000 -857 Descending Cleveland Center
Fri 12:08:03 PM 42.0672 -82.7628 333° Northwest 279 321 8,600 -871 Descending Cleveland Center
Fri 12:08:45 PM 42.1117 -82.7900 336° Northwest 283 326 8,100 -885 Descending Cleveland Center
Fri 12:09:04 PM 42.1392 -82.8117 330° Northwest 272 313 7,700 -984 Descending Cleveland Center
Fri 12:09:46 PM 42.1781 -82.8350 336° Northwest 275 316 7,100 -1,180 Descending Cleveland Center
Fri 12:10:05 PM 42.2050 -82.8542 332° Northwest 268 308 6,500 -1,180 Descending Cleveland Center
Fri 12:10:47 PM 42.2442 -82.8778 336° Northwest 269 310 5,900 -1,200 Descending Cleveland Center
Fri 12:11:00 PM 42.2672 -82.8933 333° Northwest 263 303 5,400 -774 Descending Cleveland Center
Fri 12:11:49 PM 42.3128 -82.9169 339° North 269 310 5,100 -400 Descending Cleveland Center
Fri 12:12:00 PM 42.3378 -82.9311 337° Northwest 271 312 5,000 -98 Descending Cleveland Center
Fri 12:12:50 PM 42.3811 -82.9531 339° North 269 310 5,000 -492 Level Cleveland Center
Fri 12:13:01 PM 42.4042 -82.9656 338° Northwest 260 299 4,500 -1,161 Descending Cleveland Center
Fri 12:13:52 PM 42.4594 -82.9939 339° North 256 295 3,800 -984 Descending Cleveland Center
Fri 12:14:02 PM 42.4708 -83.0000 338° Northwest 240 276 3,500 -689 Descending Cleveland Center
Fri 12:14:53 PM 42.5197 -83.0264 338° Northwest 241 277 3,100 -448 Descending Cleveland Center
Fri 12:15:09 PM 42.5372 -83.0372 335° Northwest 215 247 3,000  Descending Cleveland Center
Fri 12:15:54 PM 42.5747 -83.0558 340° North 223 257 3,100  Climbing Cleveland Center
Fri 12:16:10 PM 42.5917 -83.0647 339° North 206 237 3,000  Descending Cleveland Center
Fri 12:16:56 PM 42.6231 -83.0886 331° Northwest 208 239 3,100  Climbing Cleveland Center
Fri 12:17:11 PM 42.6344 -83.1075 309° West 175 201 3,000  Descending Cleveland Center
Fri 12:17:57 PM 42.6581 -83.1392 315° West 192 221 3,100  Climbing Cleveland Center
Fri 12:18:11 PM 42.6683 -83.1603 304° West 183 211 3,000  Descending Cleveland Center
Fri 12:18:59 PM 42.6719 -83.1992 277° West 184 212 3,100  Climbing Cleveland Center
Fri 12:19:12 PM 42.6697 -83.2231 263° West 166 191 3,000  Descending Cleveland Center
Fri 12:20:00 PM 42.6700 -83.2569 271° West 166 191 3,100  Climbing Cleveland Center
Fri 12:20:07 PM 42.6681 -83.2739 261° West 137 158 3,000 -492 Descending Cleveland Center
Fri 12:21:01 PM 42.6692 -83.3094 272° West 136 157 2,600 -492 Descending Cleveland Center
Fri 12:21:08 PM 42.6669 -83.3133 232° Southwest 83 96 2,500 -484 Descending Cleveland Center
Fri 12:22:03 PM 42.6675 -83.3436 271° West 106 122 2,100 -492 Descending Cleveland Center
Fri 12:22:09 PM 42.6664 -83.3503 257° West 98 113 2,000 -590 Descending Cleveland Center
Fri 12:23:04 PM 42.6667 -83.3797 271° West 98 113 1,500 -308 Descending Cleveland Center
Fri 12:24:06 PM 42.6653 -83.4161 267° West 98 113 1,400 -97 Descending Cleveland Center

Login

Don't have an account? Register now (free) for customized features, flight alerts, and more!